sensor_id;sensor_type;location;lat;lon;timestamp;pressure;altitude;pressure_sealevel;temperature;humidity
42125;BME280;27787;44.594;11.046;2023-05-11T00:00:24;100586.44;;;12.78;100.00
42125;BME280;27787;44.594;11.046;2023-05-11T00:03:08;100589.09;;;12.77;100.00
42125;BME280;27787;44.594;11.046;2023-05-11T00:05:53;100574.06;;;12.79;100.00
42125;BME280;27787;44.594;11.046;2023-05-11T00:08:37;100582.03;;;12.77;100.00
42125;BME280;27787;44.594;11.046;2023-05-11T00:11:21;100579.38;;;12.80;100.00
42125;BME280;27787;44.594;11.046;2023-05-11T00:14:06;100569.69;;;12.76;100.00
42125;BME280;27787;44.594;11.046;2023-05-11T00:16:50;100559.06;;;12.75;100.00
42125;BME280;27787;44.594;11.046;2023-05-11T00:19:34;100563.47;;;12.74;100.00
42125;BME280;27787;44.594;11.046;2023-05-11T00:22:18;100567.03;;;12.76;100.00
42125;BME280;27787;44.594;11.046;2023-05-11T00:25:02;100560.84;;;12.77;100.00
42125;BME280;27787;44.594;11.046;2023-05-11T00:27:47;100548.50;;;12.76;100.00
42125;BME280;27787;44.594;11.046;2023-05-11T00:30:31;100557.31;;;12.78;100.00
42125;BME280;27787;44.594;11.046;2023-05-11T00:33:15;100549.34;;;12.80;100.00
42125;BME280;27787;44.594;11.046;2023-05-11T00:35:59;100559.94;;;12.81;100.00
42125;BME280;27787;44.594;11.046;2023-05-11T00:38:43;100554.63;;;12.81;100.00
42125;BME280;27787;44.594;11.046;2023-05-11T00:41:28;100552.88;;;12.80;100.00
42125;BME280;27787;44.594;11.046;2023-05-11T00:44:12;100554.63;;;12.83;100.00
42125;BME280;27787;44.594;11.046;2023-05-11T00:46:56;100548.47;;;12.79;100.00
42125;BME280;27787;44.594;11.046;2023-05-11T00:49:41;100563.47;;;12.82;100.00
42125;BME280;27787;44.594;11.046;2023-05-11T00:52:26;100559.97;;;12.78;100.00
42125;BME280;27787;44.594;11.046;2023-05-11T00:55:12;100553.78;;;12.79;100.00
42125;BME280;27787;44.594;11.046;2023-05-11T00:57:56;100549.38;;;12.77;100.00
42125;BME280;27787;44.594;11.046;2023-05-11T01:00:41;100561.72;;;12.73;100.00
42125;BME280;27787;44.594;11.046;2023-05-11T01:03:25;100565.25;;;12.77;100.00
42125;BME280;27787;44.594;11.046;2023-05-11T01:06:37;100559.06;;;12.73;100.00
42125;BME280;27787;44.594;11.046;2023-05-11T01:15:39;100553.78;;;12.76;100.00
42125;BME280;27787;44.594;11.046;2023-05-11T01:21:36;100559.06;;;12.78;100.00
42125;BME280;27787;44.594;11.046;2023-05-11T01:24:31;100556.41;;;12.75;100.00
42125;BME280;27787;44.594;11.046;2023-05-11T01:27:52;100557.31;;;12.77;100.00
42125;BME280;27787;44.594;11.046;2023-05-11T01:31:01;100555.56;;;12.77;100.00
42125;BME280;27787;44.594;11.046;2023-05-11T01:34:00;100561.72;;;12.78;100.00
42125;BME280;27787;44.594;11.046;2023-05-11T01:36:55;100562.59;;;12.78;100.00
42125;BME280;27787;44.594;11.046;2023-05-11T01:40:09;100567.00;;;12.82;100.00
42125;BME280;27787;44.594;11.046;2023-05-11T01:43:08;100564.38;;;12.79;100.00
42125;BME280;27787;44.594;11.046;2023-05-11T01:45:59;100557.31;;;12.78;100.00
42125;BME280;27787;44.594;11.046;2023-05-11T01:48:47;100559.94;;;12.81;100.00
42125;BME280;27787;44.594;11.046;2023-05-11T01:51:37;100558.19;;;12.80;100.00
42125;BME280;27787;44.594;11.046;2023-05-11T01:54:24;100563.47;;;12.79;100.00
42125;BME280;27787;44.594;11.046;2023-05-11T01:57:10;100557.31;;;12.77;100.00
42125;BME280;27787;44.594;11.046;2023-05-11T01:59:58;100563.47;;;12.79;100.00
42125;BME280;27787;44.594;11.046;2023-05-11T02:02:45;100563.50;;;12.77;100.00
42125;BME280;27787;44.594;11.046;2023-05-11T02:05:32;100567.91;;;12.78;100.00
42125;BME280;27787;44.594;11.046;2023-05-11T02:08:19;100560.81;;;12.82;100.00
42125;BME280;27787;44.594;11.046;2023-05-11T02:11:05;100558.19;;;12.79;100.00
42125;BME280;27787;44.594;11.046;2023-05-11T02:13:51;100557.31;;;12.78;100.00
42125;BME280;27787;44.594;11.046;2023-05-11T02:16:37;100550.25;;;12.79;100.00
42125;BME280;27787;44.594;11.046;2023-05-11T02:19:23;100552.00;;;12.80;100.00
42125;BME280;27787;44.594;11.046;2023-05-11T02:22:08;100551.09;;;12.81;100.00
42125;BME280;27787;44.594;11.046;2023-05-11T02:24:54;100552.88;;;12.79;100.00
42125;BME280;27787;44.594;11.046;2023-05-11T02:27:39;100556.41;;;12.75;100.00
42125;BME280;27787;44.594;11.046;2023-05-11T02:30:26;100548.47;;;12.75;100.00
42125;BME280;27787;44.594;11.046;2023-05-11T02:33:14;100545.81;;;12.75;100.00
42125;BME280;27787;44.594;11.046;2023-05-11T02:36:01;100546.69;;;12.75;100.00
42125;BME280;27787;44.594;11.046;2023-05-11T02:38:49;100551.13;;;12.75;100.00
42125;BME280;27787;44.594;11.046;2023-05-11T02:41:40;100544.94;;;12.76;100.00
42125;BME280;27787;44.594;11.046;2023-05-11T02:44:27;100544.06;;;12.75;100.00
42125;BME280;27787;44.594;11.046;2023-05-11T02:47:16;100544.94;;;12.76;100.00
42125;BME280;27787;44.594;11.046;2023-05-11T02:50:03;100538.75;;;12.75;100.00
42125;BME280;27787;44.594;11.046;2023-05-11T02:52:54;100537.88;;;12.75;100.00
42125;BME280;27787;44.594;11.046;2023-05-11T02:55:41;100531.72;;;12.73;100.00
42125;BME280;27787;44.594;11.046;2023-05-11T02:58:26;100536.13;;;12.70;100.00
42125;BME280;27787;44.594;11.046;2023-05-11T03:01:20;100535.25;;;12.72;100.00
42125;BME280;27787;44.594;11.046;2023-05-11T03:04:05;100529.06;;;12.74;100.00
42125;BME280;27787;44.594;11.046;2023-05-11T03:06:50;100532.63;;;12.70;100.00
42125;BME280;27787;44.594;11.046;2023-05-11T03:09:34;100531.72;;;12.71;100.00
42125;BME280;27787;44.594;11.046;2023-05-11T03:12:19;100529.09;;;12.69;100.00
42125;BME280;27787;44.594;11.046;2023-05-11T03:15:06;100529.97;;;12.68;100.00
42125;BME280;27787;44.594;11.046;2023-05-11T03:17:54;100533.53;;;12.66;100.00
42125;BME280;27787;44.594;11.046;2023-05-11T03:20:40;100535.31;;;12.65;100.00
42125;BME280;27787;44.594;11.046;2023-05-11T03:23:27;100533.53;;;12.64;100.00
42125;BME280;27787;44.594;11.046;2023-05-11T03:26:16;100525.59;;;12.64;100.00
42125;BME280;27787;44.594;11.046;2023-05-11T03:29:01;100519.41;;;12.65;100.00
42125;BME280;27787;44.594;11.046;2023-05-11T03:31:46;100524.69;;;12.68;100.00
42125;BME280;27787;44.594;11.046;2023-05-11T03:34:31;100531.75;;;12.69;100.00
42125;BME280;27787;44.594;11.046;2023-05-11T03:37:16;100524.66;;;12.70;100.00
42125;BME280;27787;44.594;11.046;2023-05-11T03:40:02;100529.97;;;12.70;100.00
42125;BME280;27787;44.594;11.046;2023-05-11T03:42:54;100524.69;;;12.65;100.00
42125;BME280;27787;44.594;11.046;2023-05-11T03:45:42;100523.81;;;12.65;100.00
42125;BME280;27787;44.594;11.046;2023-05-11T03:48:27;100524.69;;;12.62;100.00
42125;BME280;27787;44.594;11.046;2023-05-11T03:51:13;100527.34;;;12.62;100.00
42125;BME280;27787;44.594;11.046;2023-05-11T03:53:58;100534.41;;;12.65;100.00
42125;BME280;27787;44.594;11.046;2023-05-11T03:56:42;100536.16;;;12.69;100.00
42125;BME280;27787;44.594;11.046;2023-05-11T03:59:26;100537.03;;;12.71;100.00
42125;BME280;27787;44.594;11.046;2023-05-11T04:02:10;100538.78;;;12.70;100.00
42125;BME280;27787;44.594;11.046;2023-05-11T04:04:54;100546.72;;;12.72;100.00
42125;BME280;27787;44.594;11.046;2023-05-11T04:07:39;100544.06;;;12.77;100.00
42125;BME280;27787;44.594;11.046;2023-05-11T04:10:23;100537.91;;;12.76;100.00
42125;BME280;27787;44.594;11.046;2023-05-11T04:13:09;100537.00;;;12.76;100.00
42125;BME280;27787;44.594;11.046;2023-05-11T04:15:53;100539.66;;;12.77;100.00
42125;BME280;27787;44.594;11.046;2023-05-11T04:18:37;100550.22;;;12.76;100.00
42125;BME280;27787;44.594;11.046;2023-05-11T04:21:21;100541.44;;;12.77;100.00
42125;BME280;27787;44.594;11.046;2023-05-11T04:24:05;100530.81;;;12.78;100.00
42125;BME280;27787;44.594;11.046;2023-05-11T04:26:54;100542.28;;;12.76;100.00
42125;BME280;27787;44.594;11.046;2023-05-11T04:29:38;100531.72;;;12.73;100.00
42125;BME280;27787;44.594;11.046;2023-05-11T04:32:22;100540.56;;;12.72;100.00
42125;BME280;27787;44.594;11.046;2023-05-11T04:35:07;100532.59;;;12.73;100.00
42125;BME280;27787;44.594;11.046;2023-05-11T04:37:54;100537.00;;;12.76;100.00
42125;BME280;27787;44.594;11.046;2023-05-11T04:40:38;100526.41;;;12.76;100.00
42125;BME280;27787;44.594;11.046;2023-05-11T04:43:23;100525.53;;;12.78;100.00
42125;BME280;27787;44.594;11.046;2023-05-11T04:46:07;100524.63;;;12.81;100.00
42125;BME280;27787;44.594;11.046;2023-05-11T04:48:51;100529.00;;;12.85;100.00
42125;BME280;27787;44.594;11.046;2023-05-11T04:51:36;100526.34;;;12.85;100.00
42125;BME280;27787;44.594;11.046;2023-05-11T04:54:20;100533.41;;;12.87;100.00
42125;BME280;27787;44.594;11.046;2023-05-11T04:57:06;100536.91;;;12.92;100.00
42125;BME280;27787;44.594;11.046;2023-05-11T04:59:50;100526.28;;;12.95;100.00
42125;BME280;27787;44.594;11.046;2023-05-11T05:02:34;100524.50;;;12.99;100.00
42125;BME280;27787;44.594;11.046;2023-05-11T05:05:19;100526.25;;;13.00;100.00
42125;BME280;27787;44.594;11.046;2023-05-11T05:08:03;100538.59;;;13.01;100.00
42125;BME280;27787;44.594;11.046;2023-05-11T05:10:47;100534.19;;;13.02;100.00
42125;BME280;27787;44.594;11.046;2023-05-11T05:13:32;100534.19;;;13.02;100.00
42125;BME280;27787;44.594;11.046;2023-05-11T05:16:17;100539.50;;;13.05;100.00
42125;BME280;27787;44.594;11.046;2023-05-11T05:19:01;100545.66;;;13.07;100.00
42125;BME280;27787;44.594;11.046;2023-05-11T05:21:47;100537.69;;;13.08;100.00
42125;BME280;27787;44.594;11.046;2023-05-11T05:24:32;100537.72;;;13.07;100.00
42125;BME280;27787;44.594;11.046;2023-05-11T05:27:16;100537.72;;;13.05;100.00
42125;BME280;27787;44.594;11.046;2023-05-11T05:30:01;100533.28;;;13.07;100.00
42125;BME280;27787;44.594;11.046;2023-05-11T05:32:46;100533.25;;;13.12;100.00
42125;BME280;27787;44.594;11.046;2023-05-11T05:35:31;100534.13;;;13.17;100.00
42125;BME280;27787;44.594;11.046;2023-05-11T05:38:15;100535.00;;;13.20;100.00
42125;BME280;27787;44.594;11.046;2023-05-11T05:40:59;100532.31;;;13.23;100.00
42125;BME280;27787;44.594;11.046;2023-05-11T05:43:46;100530.53;;;13.25;100.00
42125;BME280;27787;44.594;11.046;2023-05-11T05:46:31;100532.28;;;13.30;100.00
42125;BME280;27787;44.594;11.046;2023-05-11T05:49:16;100535.78;;;13.33;100.00
42125;BME280;27787;44.594;11.046;2023-05-11T05:52:01;100539.28;;;13.37;100.00
42125;BME280;27787;44.594;11.046;2023-05-11T05:54:45;100530.44;;;13.38;100.00
42125;BME280;27787;44.594;11.046;2023-05-11T05:57:30;100531.31;;;13.43;100.00
42125;BME280;27787;44.594;11.046;2023-05-11T06:00:15;100529.50;;;13.45;100.00
42125;BME280;27787;44.594;11.046;2023-05-11T06:02:59;100528.63;;;13.46;100.00
42125;BME280;27787;44.594;11.046;2023-05-11T06:05:44;100531.25;;;13.49;100.00
42125;BME280;27787;44.594;11.046;2023-05-11T06:08:29;100532.97;;;13.53;100.00
42125;BME280;27787;44.594;11.046;2023-05-11T06:11:13;100531.16;;;13.58;100.00
42125;BME280;27787;44.594;11.046;2023-05-11T06:13:58;100533.78;;;13.63;100.00
42125;BME280;27787;44.594;11.046;2023-05-11T06:16:43;100528.44;;;13.66;100.00
42125;BME280;27787;44.594;11.046;2023-05-11T06:19:27;100524.91;;;13.68;100.00
42125;BME280;27787;44.594;11.046;2023-05-11T06:22:12;100524.84;;;13.73;100.00
42125;BME280;27787;44.594;11.046;2023-05-11T06:24:56;100529.22;;;13.77;100.00
42125;BME280;27787;44.594;11.046;2023-05-11T06:27:41;100519.44;;;13.83;100.00
42125;BME280;27787;44.594;11.046;2023-05-11T06:30:26;100519.41;;;13.86;100.00
42125;BME280;27787;44.594;11.046;2023-05-11T06:33:10;100522.88;;;13.92;100.00
42125;BME280;27787;44.594;11.046;2023-05-11T06:35:56;100514.88;;;13.98;100.00
42125;BME280;27787;44.594;11.046;2023-05-11T06:38:44;100519.25;;;14.00;100.00
42125;BME280;27787;44.594;11.046;2023-05-11T06:41:28;100516.59;;;14.02;100.00
42125;BME280;27787;44.594;11.046;2023-05-11T06:44:12;100513.91;;;14.03;100.00
42125;BME280;27787;44.594;11.046;2023-05-11T06:47:00;100518.28;;;14.09;100.00
42125;BME280;27787;44.594;11.046;2023-05-11T06:49:44;100524.41;;;14.15;100.00
42125;BME280;27787;44.594;11.046;2023-05-11T06:52:28;100527.88;;;14.22;100.00
42125;BME280;27787;44.594;11.046;2023-05-11T06:55:12;100523.34;;;14.30;100.00
42125;BME280;27787;44.594;11.046;2023-05-11T06:57:57;100525.91;;;14.39;100.00
42125;BME280;27787;44.594;11.046;2023-05-11T07:00:41;100523.19;;;14.42;100.00
42125;BME280;27787;44.594;11.046;2023-05-11T07:03:25;100524.09;;;14.46;100.00
42125;BME280;27787;44.594;11.046;2023-05-11T07:06:10;100524.06;;;14.48;100.00
42125;BME280;27787;44.594;11.046;2023-05-11T07:08:54;100521.38;;;14.51;100.00
42125;BME280;27787;44.594;11.046;2023-05-11T07:11:39;100526.63;;;14.54;100.00
42125;BME280;27787;44.594;11.046;2023-05-11T07:14:24;100530.16;;;14.54;98.76
42125;BME280;27787;44.594;11.046;2023-05-11T07:17:08;100532.84;;;14.53;99.51
42125;BME280;27787;44.594;11.046;2023-05-11T07:19:52;100531.09;;;14.52;99.11
42125;BME280;27787;44.594;11.046;2023-05-11T07:22:37;100537.28;;;14.52;99.91
42125;BME280;27787;44.594;11.046;2023-05-11T07:25:21;100534.66;;;14.49;99.16
42125;BME280;27787;44.594;11.046;2023-05-11T07:28:05;100532.06;;;14.46;99.60
42125;BME280;27787;44.594;11.046;2023-05-11T07:30:49;100527.56;;;14.50;99.63
42125;BME280;27787;44.594;11.046;2023-05-11T07:33:36;100532.81;;;14.56;98.38
42125;BME280;27787;44.594;11.046;2023-05-11T07:36:22;100523.22;;;14.45;98.94
42125;BME280;27787;44.594;11.046;2023-05-11T07:39:12;100526.66;;;14.52;100.00
42125;BME280;27787;44.594;11.046;2023-05-11T07:42:04;100528.47;;;14.49;100.00
42125;BME280;27787;44.594;11.046;2023-05-11T07:44:50;100532.03;;;14.48;100.00
42125;BME280;27787;44.594;11.046;2023-05-11T07:47:34;100522.22;;;14.53;100.00
42125;BME280;27787;44.594;11.046;2023-05-11T07:50:20;100529.28;;;14.54;100.00
42125;BME280;27787;44.594;11.046;2023-05-11T07:53:05;100535.34;;;14.65;100.00
42125;BME280;27787;44.594;11.046;2023-05-11T07:55:49;100529.97;;;14.69;100.00
42125;BME280;27787;44.594;11.046;2023-05-11T07:58:36;100528.97;;;14.78;100.00
42125;BME280;27787;44.594;11.046;2023-05-11T08:01:22;100532.44;;;14.83;100.00
42125;BME280;27787;44.594;11.046;2023-05-11T08:04:06;100526.91;;;14.97;96.88
42125;BME280;27787;44.594;11.046;2023-05-11T08:06:53;100527.72;;;15.03;97.59
42125;BME280;27787;44.594;11.046;2023-05-11T08:09:41;100528.59;;;15.04;99.51
42125;BME280;27787;44.594;11.046;2023-05-11T08:12:29;100518.06;;;14.98;97.29
42125;BME280;27787;44.594;11.046;2023-05-11T08:15:28;100532.94;;;15.10;95.13
42125;BME280;27787;44.594;11.046;2023-05-11T08:18:33;100528.63;;;15.02;96.27
42125;BME280;27787;44.594;11.046;2023-05-11T08:21:25;100528.72;;;14.95;92.87
42125;BME280;27787;44.594;11.046;2023-05-11T08:24:31;100537.56;;;14.98;93.88
42125;BME280;27787;44.594;11.046;2023-05-11T08:27:21;100534.91;;;14.97;93.97
42125;BME280;27787;44.594;11.046;2023-05-11T08:30:11;100534.09;;;14.92;95.04
42125;BME280;27787;44.594;11.046;2023-05-11T08:33:00;100538.63;;;14.85;95.58
42125;BME280;27787;44.594;11.046;2023-05-11T08:35:54;100538.59;;;14.88;95.35
42125;BME280;27787;44.594;11.046;2023-05-11T08:38:43;100536.06;;;14.78;95.45
42125;BME280;27787;44.594;11.046;2023-05-11T08:41:32;100534.25;;;14.81;97.03
42125;BME280;27787;44.594;11.046;2023-05-11T08:44:44;100531.53;;;14.84;98.19
42125;BME280;27787;44.594;11.046;2023-05-11T08:47:58;100533.28;;;14.88;99.01
42125;BME280;27787;44.594;11.046;2023-05-11T08:50:49;100520.81;;;14.92;100.00
42125;BME280;27787;44.594;11.046;2023-05-11T08:53:35;100530.50;;;14.97;100.00
42125;BME280;27787;44.594;11.046;2023-05-11T08:56:25;100540.03;;;15.09;97.83
42125;BME280;27787;44.594;11.046;2023-05-11T08:59:20;100535.72;;;15.02;97.84
42125;BME280;27787;44.594;11.046;2023-05-11T09:02:21;100541.22;;;14.90;99.26
42125;BME280;27787;44.594;11.046;2023-05-11T09:05:20;100536.91;;;14.80;99.03
42125;BME280;27787;44.594;11.046;2023-05-11T09:08:10;100532.59;;;14.71;100.00
42125;BME280;27787;44.594;11.046;2023-05-11T09:11:04;100544.13;;;14.71;100.00
42125;BME280;27787;44.594;11.046;2023-05-11T09:13:54;100549.50;;;14.65;100.00
42125;BME280;27787;44.594;11.046;2023-05-11T09:16:42;100544.13;;;14.70;100.00
42125;BME280;27787;44.594;11.046;2023-05-11T09:19:59;100545.78;;;14.80;100.00
42125;BME280;27787;44.594;11.046;2023-05-11T09:22:47;100544.72;;;14.92;100.00
42125;BME280;27787;44.594;11.046;2023-05-11T09:25:37;100541.97;;;14.99;100.00
42125;BME280;27787;44.594;11.046;2023-05-11T09:28:25;100550.69;;;15.08;100.00
42125;BME280;27787;44.594;11.046;2023-05-11T09:31:36;100543.47;;;15.17;100.00
42125;BME280;27787;44.594;11.046;2023-05-11T09:34:30;100544.31;;;15.19;100.00
42125;BME280;27787;44.594;11.046;2023-05-11T09:37:17;100539.91;;;15.18;100.00
42125;BME280;27787;44.594;11.046;2023-05-11T09:40:04;100537.13;;;15.27;100.00
42125;BME280;27787;44.594;11.046;2023-05-11T09:42:53;100541.41;;;15.36;100.00
42125;BME280;27787;44.594;11.046;2023-05-11T09:45:41;100532.28;;;15.52;100.00
42125;BME280;27787;44.594;11.046;2023-05-11T09:48:27;100539.19;;;15.66;100.00
42125;BME280;27787;44.594;11.046;2023-05-11T09:51:12;100540.69;;;15.82;100.00
42125;BME280;27787;44.594;11.046;2023-05-11T09:53:59;100531.56;;;15.95;100.00
42125;BME280;27787;44.594;11.046;2023-05-11T09:56:48;100530.41;;;16.10;100.00
42125;BME280;27787;44.594;11.046;2023-05-11T09:59:37;100538.25;;;16.17;95.18
42125;BME280;27787;44.594;11.046;2023-05-11T10:02:31;100540.16;;;16.09;96.05
42125;BME280;27787;44.594;11.046;2023-05-11T10:05:18;100536.59;;;16.10;95.60
42125;BME280;27787;44.594;11.046;2023-05-11T10:08:04;100537.41;;;16.15;95.34
42125;BME280;27787;44.594;11.046;2023-05-11T10:10:48;100525.94;;;16.10;95.93
42125;BME280;27787;44.594;11.046;2023-05-11T10:13:33;100532.06;;;16.17;98.88
42125;BME280;27787;44.594;11.046;2023-05-11T10:16:19;100530.06;;;16.28;100.00
42125;BME280;27787;44.594;11.046;2023-05-11T10:19:03;100524.69;;;16.30;97.41
42125;BME280;27787;44.594;11.046;2023-05-11T10:21:49;100528.34;;;16.24;95.67
42125;BME280;27787;44.594;11.046;2023-05-11T10:24:34;100527.69;;;16.11;97.49
42125;BME280;27787;44.594;11.046;2023-05-11T10:27:20;100519.00;;;16.03;95.67
42125;BME280;27787;44.594;11.046;2023-05-11T10:30:06;100522.56;;;16.02;95.35
42125;BME280;27787;44.594;11.046;2023-05-11T10:32:52;100527.22;;;15.91;96.61
42125;BME280;27787;44.594;11.046;2023-05-11T10:35:44;100522.50;;;16.05;96.08
42125;BME280;27787;44.594;11.046;2023-05-11T10:38:28;100517.97;;;16.10;96.03
42125;BME280;27787;44.594;11.046;2023-05-11T10:41:28;100518.66;;;16.20;97.65
42125;BME280;27787;44.594;11.046;2023-05-11T10:47:21;100517.16;;;16.50;94.76
42125;BME280;27787;44.594;11.046;2023-05-11T10:50:55;100515.09;;;16.21;97.45
42125;BME280;27787;44.594;11.046;2023-05-11T11:03:13;100513.38;;;15.71;100.00
42125;BME280;27787;44.594;11.046;2023-05-11T11:05:58;100513.25;;;15.78;100.00
42125;BME280;27787;44.594;11.046;2023-05-11T11:08:56;100518.63;;;15.74;99.90
42125;BME280;27787;44.594;11.046;2023-05-11T11:11:43;100506.94;;;15.82;100.00
42125;BME280;27787;44.594;11.046;2023-05-11T11:17:37;100509.25;;;16.01;100.00
42125;BME280;27787;44.594;11.046;2023-05-11T11:20:44;100510.13;;;16.01;96.53
42125;BME280;27787;44.594;11.046;2023-05-11T11:26:47;100508.53;;;15.92;97.57
42125;BME280;27787;44.594;11.046;2023-05-11T11:29:35;100509.44;;;15.91;96.77
42125;BME280;27787;44.594;11.046;2023-05-11T11:38:29;100505.28;;;15.77;94.97
42125;BME280;27787;44.594;11.046;2023-05-11T11:41:28;100521.97;;;15.85;94.31
42125;BME280;27787;44.594;11.046;2023-05-11T11:44:20;100524.56;;;15.91;88.01
42125;BME280;27787;44.594;11.046;2023-05-11T11:47:17;100519.31;;;15.85;88.25
42125;BME280;27787;44.594;11.046;2023-05-11T11:50:10;100522.88;;;15.84;88.55
42125;BME280;27787;44.594;11.046;2023-05-11T11:53:04;100515.97;;;15.74;87.54
42125;BME280;27787;44.594;11.046;2023-05-11T11:55:55;100524.84;;;15.76;89.58
42125;BME280;27787;44.594;11.046;2023-05-11T12:01:53;100509.47;;;15.90;87.75
42125;BME280;27787;44.594;11.046;2023-05-11T12:04:48;100503.28;;;15.88;87.42
42125;BME280;27787;44.594;11.046;2023-05-11T12:07:42;100508.56;;;15.91;89.43
42125;BME280;27787;44.594;11.046;2023-05-11T12:10:30;100508.47;;;15.96;90.06
42125;BME280;27787;44.594;11.046;2023-05-11T12:13:15;100502.22;;;15.98;90.67
42125;BME280;27787;44.594;11.046;2023-05-11T12:16:10;100504.00;;;15.98;91.23
42125;BME280;27787;44.594;11.046;2023-05-11T12:18:58;100503.13;;;15.97;89.06
42125;BME280;27787;44.594;11.046;2023-05-11T12:21:45;100510.44;;;15.86;91.44
42125;BME280;27787;44.594;11.046;2023-05-11T12:24:29;100508.63;;;15.86;92.03
42125;BME280;27787;44.594;11.046;2023-05-11T12:27:16;100508.56;;;15.91;90.18
42125;BME280;27787;44.594;11.046;2023-05-11T12:30:07;100506.84;;;15.87;90.44
42125;BME280;27787;44.594;11.046;2023-05-11T12:32:55;100515.31;;;15.61;89.64
42125;BME280;27787;44.594;11.046;2023-05-11T12:35:45;100508.66;;;15.32;92.55
42125;BME280;27787;44.594;11.046;2023-05-11T12:38:57;100509.00;;;15.13;95.29
42125;BME280;27787;44.594;11.046;2023-05-11T12:41:42;100510.84;;;15.06;96.64
42125;BME280;27787;44.594;11.046;2023-05-11T12:44:27;100511.84;;;15.00;97.27
42125;BME280;27787;44.594;11.046;2023-05-11T12:47:12;100510.06;;;14.99;98.35
42125;BME280;27787;44.594;11.046;2023-05-11T12:49:57;100510.09;;;14.96;99.28
42125;BME280;27787;44.594;11.046;2023-05-11T12:52:44;100510.94;;;15.00;99.03
42125;BME280;27787;44.594;11.046;2023-05-11T12:55:59;100512.56;;;15.09;98.41
42125;BME280;27787;44.594;11.046;2023-05-11T12:58:51;100517.88;;;15.12;97.92
42125;BME280;27787;44.594;11.046;2023-05-11T13:01:39;100522.25;;;15.14;97.63
42125;BME280;27787;44.594;11.046;2023-05-11T13:04:49;100523.94;;;15.20;97.68
42125;BME280;27787;44.594;11.046;2023-05-11T13:07:34;100523.97;;;15.18;95.82
42125;BME280;27787;44.594;11.046;2023-05-11T13:10:25;100522.97;;;15.25;96.00
42125;BME280;27787;44.594;11.046;2023-05-11T13:13:10;100528.03;;;15.41;93.68
42125;BME280;27787;44.594;11.046;2023-05-11T13:15:56;100523.38;;;15.55;91.67
42125;BME280;27787;44.594;11.046;2023-05-11T13:18:55;100514.56;;;15.51;92.87
42125;BME280;27787;44.594;11.046;2023-05-11T13:21:49;100515.50;;;15.47;93.46
42125;BME280;27787;44.594;11.046;2023-05-11T13:24:39;100510.22;;;15.46;92.79
42125;BME280;27787;44.594;11.046;2023-05-11T13:27:26;100508.44;;;15.46;93.49
42125;BME280;27787;44.594;11.046;2023-05-11T13:30:12;100504.91;;;15.46;94.21
42125;BME280;27787;44.594;11.046;2023-05-11T13:32:56;100508.50;;;15.43;95.66
42125;BME280;27787;44.594;11.046;2023-05-11T13:35:43;100509.28;;;15.50;92.40
42125;BME280;27787;44.594;11.046;2023-05-11T13:38:29;100512.03;;;15.44;91.26
42125;BME280;27787;44.594;11.046;2023-05-11T13:41:15;100507.72;;;15.35;91.55
42125;BME280;27787;44.594;11.046;2023-05-11T13:44:06;100507.13;;;15.18;93.21
42125;BME280;27787;44.594;11.046;2023-05-11T13:46:55;100501.09;;;15.07;94.85
42125;BME280;27787;44.594;11.046;2023-05-11T13:49:47;100503.69;;;15.10;94.34
42125;BME280;27787;44.594;11.046;2023-05-11T13:52:41;100503.78;;;15.05;95.00
42125;BME280;27787;44.594;11.046;2023-05-11T13:55:51;100503.06;;;14.92;97.57
42125;BME280;27787;44.594;11.046;2023-05-11T13:59:00;100504.06;;;14.84;100.00
42125;BME280;27787;44.594;11.046;2023-05-11T14:02:32;100491.69;;;14.86;100.00
42125;BME280;27787;44.594;11.046;2023-05-11T14:05:26;100503.13;;;14.89;99.92
42125;BME280;27787;44.594;11.046;2023-05-11T14:08:21;100504.94;;;14.84;100.00
42125;BME280;27787;44.594;11.046;2023-05-11T14:11:26;100494.38;;;14.81;100.00
42125;BME280;27787;44.594;11.046;2023-05-11T14:14:18;100497.94;;;14.80;100.00
42125;BME280;27787;44.594;11.046;2023-05-11T14:18:01;100494.34;;;14.83;99.98
42125;BME280;27787;44.594;11.046;2023-05-11T14:24:19;100495.09;;;14.92;97.65
42125;BME280;27787;44.594;11.046;2023-05-11T14:27:15;100489.63;;;15.03;97.50
42125;BME280;27787;44.594;11.046;2023-05-11T14:30:08;100483.09;;;15.25;95.84
42125;BME280;27787;44.594;11.046;2023-05-11T14:33:26;100473.13;;;15.89;95.76
42125;BME280;27787;44.594;11.046;2023-05-11T14:36:13;100472.34;;;16.29;91.31
42125;BME280;27787;44.594;11.046;2023-05-11T14:39:16;100473.56;;;16.54;87.60
42125;BME280;27787;44.594;11.046;2023-05-11T14:42:22;100466.50;;;16.51;87.54
42125;BME280;27787;44.594;11.046;2023-05-11T14:45:15;100466.47;;;16.53;86.48
42125;BME280;27787;44.594;11.046;2023-05-11T14:48:19;100467.81;;;16.32;85.54
42125;BME280;27787;44.594;11.046;2023-05-11T14:51:07;100472.56;;;16.18;85.72
42125;BME280;27787;44.594;11.046;2023-05-11T14:54:19;100463.97;;;16.04;85.97
42125;BME280;27787;44.594;11.046;2023-05-11T14:57:10;100472.94;;;15.98;86.96
42125;BME280;27787;44.594;11.046;2023-05-11T14:59:58;100471.03;;;16.05;87.37
42125;BME280;27787;44.594;11.046;2023-05-11T15:02:48;100475.53;;;16.01;87.99
42125;BME280;27787;44.594;11.046;2023-05-11T15:05:34;100478.28;;;15.97;87.69